Time;durP1;ratioP1;P1;durP2;ratioP2;P2;SDS_P1;SDS_P2;PMS_P1;PMS_P2;Temp;Humidity;BMP_temperature;BMP_pressure;BME280_temperature;BME280_humidity;BME280_pressure;Samples;Min_cycle;Max_cycle;Signal;HPM_P1;HPM_P2
2023/01/18 00:01:59;;;;;;;18.38;6.45;;;;;;;5.91;57.02;98776.94;4936894;28;96748;-70
2023/01/18 00:04:26;;;;;;;17.02;6.85;;;;;;;5.90;57.27;98774.41;4929274;28;99334;-71
2023/01/18 00:06:53;;;;;;;19.05;5.97;;;;;;;5.61;57.93;98778.38;4933663;28;99080;-70
2023/01/18 00:09:20;;;;;;;16.65;6.90;;;;;;;5.74;57.91;98762.91;4921252;28;97087;-70
2023/01/18 00:11:47;;;;;;;13.07;5.70;;;;;;;5.80;57.49;98755.63;4922708;28;96909;-70
2023/01/18 00:14:14;;;;;;;19.15;6.90;;;;;;;5.74;57.53;98758.53;4920659;28;98931;-71
2023/01/18 00:16:40;;;;;;;13.07;6.07;;;;;;;5.50;58.17;98755.31;4929509;28;100828;-72
2023/01/18 00:19:11;;;;;;;16.63;6.35;;;;;;;5.82;57.82;98751.16;4929862;28;97330;-69
2023/01/18 00:21:38;;;;;;;17.02;8.00;;;;;;;5.93;57.28;98746.28;4920394;28;97701;-69
2023/01/18 00:24:09;;;;;;;17.40;7.45;;;;;;;6.12;56.87;98746.22;4931832;28;99379;-69
2023/01/18 00:26:36;;;;;;;15.43;6.95;;;;;;;5.97;57.22;98734.72;4929056;28;98830;-70
2023/01/18 00:29:03;;;;;;;16.33;6.03;;;;;;;6.13;56.42;98742.69;4930088;28;96848;-71
2023/01/18 00:31:30;;;;;;;17.77;7.22;;;;;;;6.28;56.22;98743.72;4925677;28;97647;-69
2023/01/18 00:33:57;;;;;;;18.60;6.97;;;;;;;6.10;56.25;98737.59;4927404;28;99672;-69
2023/01/18 00:36:23;;;;;;;15.15;6.50;;;;;;;5.87;57.06;98741.34;4923096;28;97645;-70
2023/01/18 00:38:51;;;;;;;13.55;7.80;;;;;;;5.99;56.75;98740.72;4929861;28;100449;-69
2023/01/18 00:41:19;;;;;;;17.05;6.47;;;;;;;6.17;56.54;98746.03;4930528;28;97831;-69
2023/01/18 00:43:45;;;;;;;20.52;6.72;;;;;;;6.06;56.82;98743.91;4939649;28;99482;-70
2023/01/18 00:46:12;;;;;;;;;;;;;;;6.27;56.41;98744.63;4928892;28;98040;-69
2023/01/18 00:48:39;;;;;;;;;;;;;;;6.20;56.30;98745.84;4933016;28;96756;-70
2023/01/18 00:51:07;;;;;;;13.73;6.43;;;;;;;5.91;57.14;98749.88;4926825;28;96825;-71
2023/01/18 00:53:33;;;;;;;17.63;6.88;;;;;;;6.17;56.91;98757.34;4936564;28;100054;-70
2023/01/18 00:56:00;;;;;;;17.02;7.00;;;;;;;6.33;56.71;98752.19;4926153;28;99001;-72
2023/01/18 00:58:28;;;;;;;16.13;6.43;;;;;;;6.55;56.04;98752.81;4937009;28;97281;-71
2023/01/18 01:00:55;;;;;;;13.05;6.53;;;;;;;6.49;55.67;98753.13;4935838;28;98188;-70
2023/01/18 01:03:21;;;;;;;19.05;6.82;;;;;;;6.18;56.08;98755.56;4930402;28;98756;-69
2023/01/18 01:08:32;;;;;;;18.80;6.88;;;;;;;5.93;57.48;98769.00;4926316;28;97244;-70
2023/01/18 01:11:07;;;;;;;14.48;6.60;;;;;;;5.91;57.58;98776.09;4929105;28;99073;-69
2023/01/18 01:27:16;;;;;;;15.07;7.30;;;;;;;6.09;57.60;98803.22;4925359;28;97625;-70
2023/01/18 01:29:44;;;;;;;17.70;6.93;;;;;;;5.98;57.82;98809.81;4927756;28;97724;-70
2023/01/18 01:32:10;;;;;;;13.35;6.28;;;;;;;5.99;58.18;98814.13;4925622;28;97497;-71
2023/01/18 01:34:37;;;;;;;13.32;7.40;;;;;;;6.16;57.50;98815.97;4934718;28;100523;-70
2023/01/18 01:37:04;;;;;;;16.15;7.07;;;;;;;6.15;57.33;98826.53;4931595;28;98898;-69
2023/01/18 01:39:30;;;;;;;13.98;6.90;;;;;;;5.97;57.84;98818.59;4927792;28;97363;-70
2023/01/18 01:41:56;;;;;;;16.63;7.32;;;;;;;5.86;58.17;98826.09;4930394;28;97090;-72
2023/01/18 01:44:55;;;;;;;15.48;7.28;;;;;;;5.86;58.48;98831.34;4927942;28;100464;-69
2023/01/18 01:47:36;;;;;;;18.92;8.75;;;;;;;5.70;58.91;98825.13;4859103;28;99047;-70
2023/01/18 01:50:11;;;;;;;16.63;7.28;;;;;;;5.78;58.74;98833.47;4916769;28;96911;-70
2023/01/18 01:52:41;;;;;;;12.55;6.70;;;;;;;5.81;58.56;98835.09;4932427;28;96961;-70
2023/01/18 01:55:14;;;;;;;13.05;6.80;;;;;;;5.79;58.14;98829.91;4935209;28;99339;-69
2023/01/18 01:57:47;;;;;;;18.50;7.88;;;;;;;5.97;58.26;98829.09;4926999;28;98900;-69
2023/01/18 02:00:18;;;;;;;17.77;7.20;;;;;;;5.78;58.47;98843.94;4930276;28;97627;-68
2023/01/18 02:02:47;;;;;;;14.55;6.88;;;;;;;5.81;58.74;98841.19;4930272;28;97625;-70
2023/01/18 02:05:17;;;;;;;22.42;7.13;;;;;;;6.02;57.99;98844.63;4938523;28;98875;-70
2023/01/18 02:07:44;;;;;;;21.08;7.82;;;;;;;5.98;57.92;98843.91;4920889;28;97752;-69
2023/01/18 02:10:11;;;;;;;17.70;7.60;;;;;;;5.90;57.96;98840.81;4927237;28;96937;-70
2023/01/18 02:12:40;;;;;;;17.42;7.65;;;;;;;5.85;58.22;98845.34;4923091;28;98573;-71
2023/01/18 02:15:08;;;;;;;16.00;7.53;;;;;;;5.93;58.28;98845.88;4928161;28;99302;-71
2023/01/18 02:17:56;;;;;;;18.02;8.20;;;;;;;6.02;57.69;98849.00;4927795;28;98963;-70
2023/01/18 02:21:09;;;;;;;21.13;7.72;;;;;;;6.02;58.21;98855.09;4926302;28;97280;-70
2023/01/18 02:24:11;;;;;;;14.15;6.82;;;;;;;5.75;58.71;98845.88;4933019;28;98766;-70
2023/01/18 02:26:49;;;;;;;17.55;7.32;;;;;;;5.49;60.13;98847.06;4928468;28;99337;-70
2023/01/18 02:29:23;;;;;;;18.92;7.50;;;;;;;5.71;59.40;98852.19;4938791;28;98818;-71
2023/01/18 02:32:04;;;;;;;15.82;7.57;;;;;;;5.49;60.28;98852.28;4933369;28;97836;-70
2023/01/18 02:34:39;;;;;;;17.08;8.02;;;;;;;5.87;58.80;98848.81;4925101;28;97461;-70
2023/01/18 02:37:15;;;;;;;21.02;7.93;;;;;;;6.30;57.75;98833.69;4933815;28;98841;-71
2023/01/18 02:39:51;;;;;;;24.13;10.00;;;;;;;6.47;57.18;98825.81;4924196;28;97522;-70
2023/01/18 02:47:56;;;;;;;20.67;8.93;;;;;;;6.33;57.02;98842.22;4926370;28;97326;-69
2023/01/18 02:50:26;;;;;;;19.55;9.40;;;;;;;6.27;57.08;98836.44;4932526;28;98827;-71
2023/01/18 02:52:53;;;;;;;18.35;8.35;;;;;;;6.30;56.89;98839.75;4927793;28;96882;-70
2023/01/18 02:55:28;;;;;;;18.60;7.63;;;;;;;6.44;56.61;98846.94;4921681;28;97391;-70
2023/01/18 02:57:57;;;;;;;17.13;8.48;;;;;;;6.27;57.26;98844.28;4928614;28;98859;-69
2023/01/18 03:00:26;;;;;;;19.17;8.20;;;;;;;6.07;58.44;98854.88;4931553;28;98954;-70
2023/01/18 03:02:54;;;;;;;21.45;9.02;;;;;;;6.29;56.93;98847.72;4926412;28;97534;-70
2023/01/18 03:05:24;;;;;;;19.45;7.80;;;;;;;6.26;57.52;98851.31;4930374;28;97927;-70
2023/01/18 03:07:55;;;;;;;19.40;8.02;;;;;;;6.20;57.07;98858.63;4928030;28;98958;-70
2023/01/18 03:10:25;;;;;;;17.52;8.02;;;;;;;6.00;57.98;98855.19;4931544;28;100708;-70
2023/01/18 03:12:58;;;;;;;17.42;7.50;;;;;;;5.90;58.25;98856.53;4935055;28;96812;-70
2023/01/18 03:15:33;;;;;;;17.55;7.25;;;;;;;6.31;57.38;98844.06;4922033;28;97189;-69
2023/01/18 03:18:06;;;;;;;18.67;7.68;;;;;;;6.26;57.39;98853.09;4925886;28;99024;-69
2023/01/18 03:20:37;;;;;;;16.42;8.30;;;;;;;6.12;57.38;98852.88;4941026;28;99168;-70
2023/01/18 03:25:57;;;;;;;17.40;8.75;;;;;;;6.24;56.87;98849.69;4930364;28;97334;-70
2023/01/18 03:34:13;;;;;;;13.80;7.82;;;;;;;6.22;56.90;98852.41;4924537;28;96936;-69
2023/01/18 03:36:46;;;;;;;18.05;7.05;;;;;;;6.24;57.38;98862.78;4929777;28;98001;-71
2023/01/18 03:39:19;;;;;;;15.88;7.75;;;;;;;6.31;56.84;98861.56;4927472;28;98189;-70
2023/01/18 03:41:50;;;;;;;17.40;7.65;;;;;;;6.16;57.54;98860.56;4925126;28;97595;-71
2023/01/18 03:44:22;;;;;;;13.05;7.10;;;;;;;6.30;57.21;98862.53;4930245;28;99466;-71
2023/01/18 03:46:50;;;;;;;17.30;7.85;;;;;;;6.27;57.14;98854.78;4935584;28;97218;-70
2023/01/18 03:49:17;;;;;;;18.52;7.40;;;;;;;6.32;56.74;98863.28;4927029;28;98020;-70
2023/01/18 03:51:54;;;;;;;16.83;7.80;;;;;;;6.26;57.03;98866.19;4926532;28;98852;-70
2023/01/18 03:54:30;;;;;;;19.58;7.35;;;;;;;6.28;57.30;98867.00;4925633;28;97180;-71
2023/01/18 03:57:01;;;;;;;17.73;7.73;;;;;;;6.40;56.64;98858.53;4926246;28;100216;-71
2023/01/18 03:59:32;;;;;;;16.77;7.72;;;;;;;6.31;56.76;98869.44;4930782;28;100668;-71
2023/01/18 04:02:02;;;;;;;14.07;7.00;;;;;;;6.35;56.52;98863.16;4931806;28;99153;-70
2023/01/18 04:04:29;;;;;;;19.83;7.15;;;;;;;6.22;56.75;98864.66;4931626;28;96858;-71
2023/01/18 04:06:56;;;;;;;18.60;7.65;;;;;;;6.76;55.85;98855.88;4932118;28;96743;-72
2023/01/18 04:09:23;;;;;;;18.25;7.43;;;;;;;6.47;56.22;98859.94;4935728;28;99343;-71
2023/01/18 04:11:49;;;;;;;14.13;6.47;;;;;;;6.49;55.77;98852.84;4924203;28;99034;-70
2023/01/18 04:14:16;;;;;;;11.77;6.18;;;;;;;6.68;55.43;98858.03;4925067;28;97488;-71
2023/01/18 04:16:42;;;;;;;14.10;6.22;;;;;;;6.99;54.30;98849.47;4922224;28;99118;-71
2023/01/18 04:19:10;;;;;;;14.40;6.10;;;;;;;6.72;54.51;98851.69;4930435;28;98896;-70
2023/01/18 04:21:37;;;;;;;13.63;5.95;;;;;;;6.90;53.76;98853.38;4935159;28;98957;-70
2023/01/18 04:24:04;;;;;;;19.58;5.68;;;;;;;6.82;53.91;98855.56;4928602;28;97626;-70
2023/01/18 04:26:32;;;;;;;13.57;6.15;;;;;;;6.83;53.77;98852.00;4929967;28;98838;-71
2023/01/18 04:28:59;;;;;;;16.20;6.55;;;;;;;6.84;53.61;98863.34;4927091;28;99311;-70
2023/01/18 04:31:26;;;;;;;13.73;5.70;;;;;;;6.60;54.41;98857.56;4939910;28;99441;-70
2023/01/18 04:33:52;;;;;;;10.95;5.90;;;;;;;6.54;54.35;98863.97;4947012;28;97108;-71
2023/01/18 04:36:21;;;;;;;10.68;5.43;;;;;;;6.80;53.71;98858.28;4937207;28;97013;-69
2023/01/18 04:38:51;;;;;;;7.40;4.82;;;;;;;6.85;54.01;98852.78;4932951;28;99113;-71
2023/01/18 04:41:18;;;;;;;11.52;5.40;;;;;;;7.15;52.68;98856.47;4936128;28;99229;-70
2023/01/18 04:43:44;;;;;;;9.65;4.70;;;;;;;7.17;52.44;98854.63;4930431;28;101771;-71
2023/01/18 04:46:11;;;;;;;8.27;4.82;;;;;;;6.96;51.61;98853.06;4938381;28;98268;-71
2023/01/18 04:48:37;;;;;;;10.13;5.85;;;;;;;6.91;53.19;98855.09;4933106;28;99041;-71
2023/01/18 04:51:04;;;;;;;11.20;5.63;;;;;;;6.88;53.32;98862.28;4930242;28;99283;-70
2023/01/18 04:53:34;;;;;;;12.18;4.50;;;;;;;6.87;53.24;98860.59;4934862;28;96753;-70
2023/01/18 04:56:01;;;;;;;12.45;4.85;;;;;;;6.79;53.32;98867.06;4929172;28;97256;-71
2023/01/18 04:58:27;;;;;;;11.15;5.05;;;;;;;6.98;53.49;98868.75;4941121;28;98861;-70
2023/01/18 05:00:54;;;;;;;11.52;5.13;;;;;;;6.63;53.48;98860.84;4938818;28;98890;-70
2023/01/18 05:03:20;;;;;;;6.45;3.90;;;;;;;6.70;52.89;98861.41;4928351;28;97875;-72
2023/01/18 05:05:47;;;;;;;8.48;4.43;;;;;;;6.95;52.64;98861.06;4935467;28;97242;-71
2023/01/18 05:08:13;;;;;;;6.15;3.45;;;;;;;7.17;51.31;98869.53;4929211;28;99097;-71
2023/01/18 05:10:41;;;;;;;8.73;3.78;;;;;;;7.11;51.06;98872.47;4927431;28;98696;-71
2023/01/18 05:13:07;;;;;;;10.13;4.15;;;;;;;7.22;50.75;98883.25;4935159;28;98735;-71
2023/01/18 05:15:33;;;;;;;7.38;3.70;;;;;;;7.19;50.88;98881.66;4941986;28;98939;-69
2023/01/18 05:18:00;;;;;;;14.88;6.00;;;;;;;7.31;51.29;98895.09;4925048;28;99009;-69
2023/01/18 05:20:27;;;;;;;8.77;3.97;;;;;;;7.23;51.23;98892.84;4931566;28;98955;-70
2023/01/18 05:22:55;;;;;;;6.50;3.58;;;;;;;7.08;50.84;98898.91;4931179;28;97416;-71
2023/01/18 05:25:21;;;;;;;9.35;4.10;;;;;;;7.20;50.60;98898.28;4933300;28;96745;-70
2023/01/18 05:27:49;;;;;;;7.10;3.38;;;;;;;7.37;50.28;98900.88;4932271;28;98451;-69
2023/01/18 05:30:17;;;;;;;6.43;3.45;;;;;;;7.28;50.02;98901.38;4938514;28;98796;-71
2023/01/18 05:32:43;;;;;;;10.55;4.22;;;;;;;7.53;49.92;98903.56;4934294;28;97134;-71
2023/01/18 05:35:10;;;;;;;6.70;3.58;;;;;;;7.76;49.65;98902.34;4933981;28;97289;-72
2023/01/18 05:37:36;;;;;;;26.15;15.57;;;;;;;7.51;49.72;98910.69;4929813;28;98722;-70
2023/01/18 05:40:03;;;;;;;10.63;4.80;;;;;;;7.61;49.69;98915.38;4931830;28;98812;-72
2023/01/18 05:42:30;;;;;;;10.60;4.15;;;;;;;7.46;50.21;98917.97;4936094;28;97000;-72
2023/01/18 05:44:58;;;;;;;12.93;5.72;;;;;;;7.58;49.98;98920.78;4929235;28;99153;-71
2023/01/18 05:47:24;;;;;;;14.65;5.57;;;;;;;7.58;50.14;98917.31;4925878;28;98985;-70
2023/01/18 05:49:51;;;;;;;13.48;5.82;;;;;;;7.15;50.72;98922.13;4932660;28;99109;-70
2023/01/18 05:52:18;;;;;;;11.50;6.13;;;;;;;7.49;50.40;98923.03;4938040;28;96995;-71
2023/01/18 05:54:44;;;;;;;11.90;5.80;;;;;;;7.42;50.66;98919.88;4934828;28;97410;-72
2023/01/18 05:57:10;;;;;;;15.27;7.47;;;;;;;7.33;50.54;98927.41;4942959;28;98858;-71
2023/01/18 05:59:39;;;;;;;11.32;6.28;;;;;;;7.24;50.52;98919.97;4926321;28;99357;-71
2023/01/18 06:02:10;;;;;;;10.63;5.68;;;;;;;7.20;50.88;98917.50;4931268;28;97454;-70
2023/01/18 06:04:37;;;;;;;13.27;5.47;;;;;;;7.36;50.46;98921.97;4934277;28;98140;-70
2023/01/18 06:07:03;;;;;;;12.93;5.43;;;;;;;7.16;50.57;98929.09;4933697;28;97746;-71
2023/01/18 06:09:29;;;;;;;11.77;6.00;;;;;;;7.20;50.39;98927.16;4930389;28;99331;-70
2023/01/18 06:11:56;;;;;;;12.48;5.90;;;;;;;7.14;50.87;98930.09;4932401;28;97545;-70
2023/01/18 06:14:22;;;;;;;13.02;5.35;;;;;;;7.19;49.79;98933.34;4933508;28;96718;-69
2023/01/18 06:16:49;;;;;;;15.70;6.18;;;;;;;7.27;50.32;98935.59;4937970;28;99124;-70
2023/01/18 06:19:17;;;;;;;9.57;5.20;;;;;;;7.22;50.67;98935.81;4936108;28;101183;-70
2023/01/18 06:21:43;;;;;;;13.18;5.05;;;;;;;7.12;50.48;98945.09;4933394;28;97464;-70
2023/01/18 06:24:10;;;;;;;10.98;5.43;;;;;;;7.22;50.60;98948.94;4931400;28;96818;-70
2023/01/18 06:26:36;;;;;;;9.35;4.40;;;;;;;7.19;50.83;98943.84;4930866;28;99393;-70
2023/01/18 06:29:03;;;;;;;17.20;5.45;;;;;;;7.20;50.32;98956.91;4922646;28;99966;-70
2023/01/18 06:31:29;;;;;;;10.70;5.05;;;;;;;7.25;50.50;98958.47;4928933;28;97276;-70
2023/01/18 06:33:56;;;;;;;12.23;5.68;;;;;;;7.41;50.52;98965.50;4929932;28;97512;-68
2023/01/18 06:36:24;;;;;;;6.93;4.75;;;;;;;7.43;50.09;98971.50;4926901;28;99046;-71
2023/01/18 06:38:50;;;;;;;12.25;4.55;;;;;;;7.38;49.84;98965.66;4930241;28;99193;-70
2023/01/18 06:41:17;;;;;;;12.15;4.63;;;;;;;7.45;50.05;98972.28;4934029;28;96935;-70
2023/01/18 06:43:43;;;;;;;14.73;4.20;;;;;;;7.50;49.14;98974.69;4930017;28;96766;-69
2023/01/18 06:46:10;;;;;;;7.32;4.28;;;;;;;7.34;49.01;98979.88;4936714;28;99244;-70
2023/01/18 06:48:37;;;;;;;12.35;5.00;;;;;;;7.39;49.20;98979.63;4931769;28;99122;-70
2023/01/18 06:51:04;;;;;;;9.70;4.90;;;;;;;7.33;49.24;98975.53;4926764;28;97395;-70
2023/01/18 06:53:31;;;;;;;10.40;4.63;;;;;;;7.38;49.19;98977.94;4940804;28;97227;-70
2023/01/18 06:56:00;;;;;;;8.85;3.70;;;;;;;7.28;49.81;98981.97;4925722;28;98907;-71
2023/01/18 06:58:29;;;;;;;6.43;4.32;;;;;;;7.43;49.57;98984.66;4924456;28;99101;-70
2023/01/18 07:00:57;;;;;;;12.60;4.60;;;;;;;7.47;49.36;98985.38;4928979;28;96837;-70
2023/01/18 07:03:24;;;;;;;11.07;4.63;;;;;;;7.35;49.53;98991.25;4928455;28;97173;-70
2023/01/18 07:05:53;;;;;;;9.32;4.30;;;;;;;7.29;49.29;98991.50;4930271;28;96843;-70
2023/01/18 07:08:20;;;;;;;13.85;3.85;;;;;;;7.47;48.84;98991.47;4945434;28;101406;-70
2023/01/18 07:10:48;;;;;;;10.43;4.10;;;;;;;7.26;48.82;98992.53;4920712;28;99490;-71
2023/01/18 07:13:14;;;;;;;7.53;4.05;;;;;;;7.29;48.78;98992.38;4928869;28;97080;-69
2023/01/18 07:15:41;;;;;;;10.23;4.32;;;;;;;7.18;49.07;98994.69;4926923;28;98520;-70
2023/01/18 07:18:07;;;;;;;9.38;3.90;;;;;;;7.07;49.26;98997.00;4928190;28;98951;-70
2023/01/18 07:20:36;;;;;;;10.10;4.18;;;;;;;7.31;48.53;99001.03;4926599;28;97820;-71
2023/01/18 07:23:04;;;;;;;17.00;4.75;;;;;;;7.31;48.67;98994.94;4922900;28;97824;-70
2023/01/18 07:25:30;;;;;;;18.75;4.18;;;;;;;7.30;48.63;99001.09;4925086;28;100546;-70
2023/01/18 07:27:58;;;;;;;6.05;3.65;;;;;;;7.10;48.59;99007.34;4937655;28;99056;-70
2023/01/18 07:30:24;;;;;;;12.43;3.53;;;;;;;7.33;48.67;99004.44;4937958;28;97279;-71
2023/01/18 07:32:52;;;;;;;11.32;3.45;;;;;;;7.39;48.50;99004.13;4932507;28;96838;-70
2023/01/18 07:35:21;;;;;;;6.00;3.38;;;;;;;7.41;48.49;99007.53;4925583;28;98844;-72
2023/01/18 07:37:49;;;;;;;8.43;3.38;;;;;;;7.39;48.01;99011.16;4928344;28;99885;-71
2023/01/18 07:40:15;;;;;;;7.40;3.08;;;;;;;7.51;47.86;99014.03;4918967;28;97625;-70
2023/01/18 07:42:42;;;;;;;8.93;3.10;;;;;;;7.53;47.82;99011.34;4925828;28;96990;-70
2023/01/18 07:45:12;;;;;;;12.23;3.40;;;;;;;7.59;47.74;99019.75;4922220;28;97862;-71
2023/01/18 07:47:39;;;;;;;8.43;3.33;;;;;;;7.57;47.79;99013.72;4926588;28;98944;-70
2023/01/18 07:50:06;;;;;;;9.40;3.40;;;;;;;7.40;47.61;99020.75;4932649;28;97373;-70
2023/01/18 07:52:32;;;;;;;12.48;3.83;;;;;;;7.51;47.51;99019.28;4928798;28;96785;-73
2023/01/18 07:54:59;;;;;;;8.25;3.30;;;;;;;7.40;47.49;99018.13;4925584;28;97718;-70
2023/01/18 07:57:25;;;;;;;9.63;5.18;;;;;;;7.43;47.51;99008.31;4932846;28;99334;-70
2023/01/18 07:59:52;;;;;;;12.65;3.58;;;;;;;7.42;47.48;99009.22;4931910;28;96803;-71
2023/01/18 08:02:20;;;;;;;11.10;4.43;;;;;;;7.50;47.44;99003.59;4929080;28;96912;-72
2023/01/18 08:04:51;;;;;;;8.90;3.53;;;;;;;7.63;47.31;99009.06;4922772;28;97676;-70
2023/01/18 08:07:18;;;;;;;17.13;6.38;;;;;;;7.59;47.21;99009.25;4934287;28;99477;-71
2023/01/18 08:09:45;;;;;;;34.00;10.95;;;;;;;7.58;46.75;99006.69;4928698;28;97130;-70
2023/01/18 08:12:12;;;;;;;12.00;3.78;;;;;;;7.72;47.07;99008.63;4926712;28;96951;-70
2023/01/18 08:14:39;;;;;;;14.73;4.85;;;;;;;7.63;46.89;99001.19;4935261;28;98962;-71
2023/01/18 08:17:06;;;;;;;10.90;3.30;;;;;;;7.83;46.44;99019.41;4924766;28;98178;-70
2023/01/18 08:19:35;;;;;;;11.02;3.70;;;;;;;7.87;46.48;99013.94;4934594;28;96935;-70
2023/01/18 08:22:01;;;;;;;9.57;3.80;;;;;;;7.89;46.49;99014.69;4931645;28;96778;-70
2023/01/18 08:24:28;;;;;;;11.95;3.35;;;;;;;7.93;46.36;99018.03;4934152;28;97800;-70
2023/01/18 08:26:55;;;;;;;18.33;6.90;;;;;;;7.90;46.08;99018.19;4929255;28;99114;-70
2023/01/18 08:29:21;;;;;;;9.98;4.10;;;;;;;7.79;46.57;99013.47;4928320;28;97106;-71
2023/01/18 08:31:52;;;;;;;11.60;3.63;;;;;;;8.04;46.05;99015.69;4929700;28;96824;-71
2023/01/18 08:34:18;;;;;;;13.30;3.55;;;;;;;8.01;45.92;99015.81;4928786;28;99675;-71
2023/01/18 08:36:46;;;;;;;16.75;4.78;;;;;;;8.07;45.56;99017.31;4924780;28;98727;-70
2023/01/18 08:39:13;;;;;;;11.25;3.35;;;;;;;8.08;45.30;99013.72;4933568;28;97041;-70
2023/01/18 08:41:40;;;;;;;9.00;3.15;;;;;;;8.11;45.75;99018.84;4925337;28;96908;-70
2023/01/18 08:44:07;;;;;;;9.68;3.90;;;;;;;8.14;45.81;99029.22;4924381;28;102337;-71
2023/01/18 08:46:35;;;;;;;9.18;3.50;;;;;;;8.20;45.50;99021.84;4931293;28;99475;-71
2023/01/18 08:49:04;;;;;;;8.77;3.67;;;;;;;8.19;46.08;99027.19;4934495;28;97288;-70
2023/01/18 08:51:31;;;;;;;12.52;4.20;;;;;;;8.00;45.75;99030.78;4919319;28;98894;-70
2023/01/18 08:53:59;;;;;;;13.25;4.57;;;;;;;8.26;45.51;99037.31;4922166;28;99341;-70
2023/01/18 08:56:26;;;;;;;10.80;3.85;;;;;;;8.46;45.05;99038.06;4926963;28;99002;-73
2023/01/18 08:58:53;;;;;;;9.20;3.42;;;;;;;8.39;44.90;99040.16;4921665;28;97871;-70
2023/01/18 09:01:21;;;;;;;10.75;4.25;;;;;;;8.24;45.01;99040.94;4924785;28;96878;-70
2023/01/18 09:03:53;;;;;;;15.45;4.28;;;;;;;8.57;44.91;99040.94;4922164;28;98793;-71
2023/01/18 09:06:20;;;;;;;12.38;3.88;;;;;;;8.54;44.87;99038.47;4925124;28;99090;-71
2023/01/18 09:08:48;;;;;;;11.60;4.90;;;;;;;8.73;44.73;99039.16;4926694;28;97571;-71
2023/01/18 09:11:17;;;;;;;10.27;4.22;;;;;;;8.68;44.52;99035.94;4934480;28;97464;-71
2023/01/18 09:13:44;;;;;;;12.57;4.65;;;;;;;8.61;44.37;99031.94;4934472;28;98917;-71
2023/01/18 09:16:11;;;;;;;9.45;3.83;;;;;;;8.36;44.68;99049.06;4930027;28;98824;-72
2023/01/18 09:18:39;;;;;;;10.35;3.70;;;;;;;8.28;45.05;99048.59;4933622;28;99131;-71
2023/01/18 09:21:07;;;;;;;12.93;4.43;;;;;;;8.25;45.10;99061.91;4926529;28;98947;-70
2023/01/18 09:23:34;;;;;;;17.98;4.00;;;;;;;8.51;44.44;99054.44;4929476;28;98932;-71
2023/01/18 09:26:02;;;;;;;12.13;4.50;;;;;;;8.46;44.66;99064.38;4928971;28;101474;-70
2023/01/18 09:28:31;;;;;;;15.75;4.35;;;;;;;8.71;44.50;99062.13;4933616;28;97159;-70
2023/01/18 09:31:00;;;;;;;13.07;5.43;;;;;;;8.61;44.64;99066.16;4929983;28;97628;-70
2023/01/18 09:33:26;;;;;;;9.48;3.78;;;;;;;8.44;44.73;99064.47;4924313;28;99195;-71
2023/01/18 09:35:54;;;;;;;16.60;5.22;;;;;;;8.57;44.87;99064.66;4930464;28;99816;-70
2023/01/18 09:38:20;;;;;;;11.35;4.82;;;;;;;8.78;44.71;99066.97;4929148;28;99441;-70
2023/01/18 09:40:47;;;;;;;12.20;4.30;;;;;;;8.74;44.26;99067.22;4932651;28;96824;-71
2023/01/18 09:43:20;;;;;;;10.88;4.82;;;;;;;8.74;44.61;99067.22;4923417;28;99368;-71
2023/01/18 09:45:48;;;;;;;15.73;4.43;;;;;;;8.99;44.07;99070.19;4926626;28;98986;-72
2023/01/18 09:48:26;;;;;;;15.65;5.47;;;;;;;8.90;44.17;99073.34;4931073;28;97621;-72
2023/01/18 09:50:54;;;;;;;13.40;5.00;;;;;;;8.68;44.75;99078.94;4931291;28;97022;-71
2023/01/18 09:53:33;;;;;;;14.93;5.38;;;;;;;8.78;44.19;99074.03;4933346;28;100794;-72
2023/01/18 09:56:06;;;;;;;8.15;4.30;;;;;;;8.94;44.55;99077.50;4930464;28;99322;-69
2023/01/18 09:58:49;;;;;;;16.30;4.88;;;;;;;8.94;44.23;99079.28;4925725;28;96917;-72
2023/01/18 10:01:19;;;;;;;11.73;5.10;;;;;;;9.15;44.05;99078.94;4928881;28;98343;-71
2023/01/18 10:03:51;;;;;;;10.27;4.20;;;;;;;9.26;43.51;99088.03;4924855;28;99019;-70
2023/01/18 10:06:23;;;;;;;16.42;4.82;;;;;;;9.31;43.88;99073.69;4926816;28;99590;-70
2023/01/18 10:08:56;;;;;;;16.60;5.20;;;;;;;9.29;43.48;99072.91;4924341;28;96933;-74
2023/01/18 10:11:30;;;;;;;11.63;4.47;;;;;;;9.10;43.78;99080.16;4924262;28;96907;-72
2023/01/18 10:14:02;;;;;;;12.65;4.28;;;;;;;9.42;43.86;99071.28;4922708;28;99029;-71
2023/01/18 10:16:31;;;;;;;10.88;5.05;;;;;;;8.98;44.29;99076.41;4925388;28;98958;-70
2023/01/18 10:18:57;;;;;;;11.98;4.65;;;;;;;9.01;44.17;99078.88;4929381;28;96916;-70
2023/01/18 10:21:35;;;;;;;14.95;4.47;;;;;;;9.27;44.26;99077.41;4926359;28;97014;-71
2023/01/18 10:24:18;;;;;;;13.40;4.18;;;;;;;9.41;43.70;99074.84;4925590;28;102153;-72
2023/01/18 10:26:47;;;;;;;14.57;6.32;;;;;;;9.49;43.26;99077.03;4925591;28;99867;-71
2023/01/18 10:29:19;;;;;;;18.58;5.10;;;;;;;9.61;43.03;99081.59;4922912;28;98590;-71
2023/01/18 10:31:57;;;;;;;10.38;4.75;;;;;;;9.30;43.59;99081.66;4925087;28;96867;-72
2023/01/18 10:34:28;;;;;;;11.45;4.25;;;;;;;9.60;43.28;99080.75;4921630;28;101057;-70
2023/01/18 10:37:03;;;;;;;15.05;4.68;;;;;;;9.67;42.77;99081.25;4919120;28;98808;-70
2023/01/18 10:39:36;;;;;;;19.02;3.97;;;;;;;9.67;42.77;99086.53;4924648;28;97271;-70
2023/01/18 10:42:08;;;;;;;8.75;3.70;;;;;;;9.58;42.81;99082.63;4925691;28;97531;-71
2023/01/18 10:44:35;;;;;;;7.65;3.40;;;;;;;9.83;42.52;99078.59;4922273;28;99110;-70
2023/01/18 10:47:03;;;;;;;10.05;4.20;;;;;;;9.69;42.52;99076.75;4931951;28;98262;-70
2023/01/18 10:49:35;;;;;;;15.85;5.40;;;;;;;9.66;42.93;99076.91;4928110;28;98144;-71
2023/01/18 10:52:17;;;;;;;10.10;4.80;;;;;;;9.54;43.00;99080.25;4926916;28;97087;-70
2023/01/18 10:54:50;;;;;;;9.82;3.65;;;;;;;9.57;42.69;99086.22;4930337;28;99331;-70
2023/01/18 10:57:21;;;;;;;11.10;4.20;;;;;;;9.39;43.36;99084.63;4924586;28;100948;-70
2023/01/18 10:59:51;;;;;;;27.40;5.63;;;;;;;9.27;43.78;99092.38;4927580;28;97245;-70
2023/01/18 11:02:24;;;;;;;18.30;6.13;;;;;;;8.87;44.78;99089.31;4926657;28;97066;-71
2023/01/18 11:04:57;;;;;;;18.13;5.47;;;;;;;8.89;44.44;99092.72;4920490;28;99795;-70
2023/01/18 11:07:25;;;;;;;10.95;4.13;;;;;;;9.18;44.17;99088.47;4927387;28;98798;-70
2023/01/18 11:09:54;;;;;;;5.88;3.35;;;;;;;9.48;43.99;99086.75;4924653;28;97187;-71
2023/01/18 11:12:35;;;;;;;6.47;3.17;;;;;;;9.35;43.69;99084.88;4923077;28;97099;-69
2023/01/18 11:15:27;;;;;;;12.27;3.47;;;;;;;9.55;43.57;99090.72;4926622;28;101600;-69
2023/01/18 11:18:16;;;;;;;10.60;3.80;;;;;;;9.42;43.50;99096.78;4932752;28;99508;-70
2023/01/18 11:20:47;;;;;;;13.75;4.18;;;;;;;9.32;43.93;99095.63;4929588;28;97218;-70
2023/01/18 11:23:24;;;;;;;8.45;3.80;;;;;;;9.68;43.54;99097.94;4929496;28;97183;-70
2023/01/18 11:25:55;;;;;;;10.25;3.75;;;;;;;9.66;43.55;99095.38;4926572;28;99404;-69
2023/01/18 11:28:25;;;;;;;16.60;4.07;;;;;;;9.50;43.99;99089.28;4934843;28;99725;-70
2023/01/18 11:30:55;;;;;;;15.00;5.05;;;;;;;9.52;43.44;99098.81;4936473;28;96734;-71
2023/01/18 11:33:26;;;;;;;11.57;3.83;;;;;;;9.67;43.30;99101.50;4932686;28;97263;-70
2023/01/18 11:35:54;;;;;;;16.00;5.07;;;;;;;9.44;43.66;99102.84;4921952;28;99108;-71
2023/01/18 11:38:25;;;;;;;12.50;4.35;;;;;;;9.70;43.30;99096.91;4918674;28;99081;-69
2023/01/18 11:41:02;;;;;;;9.65;3.70;;;;;;;9.81;43.13;99102.41;4917376;28;99407;-72
2023/01/18 11:43:33;;;;;;;6.20;3.53;;;;;;;9.79;43.67;99106.06;4918668;28;98095;-69
2023/01/18 11:46:07;;;;;;;13.57;4.57;;;;;;;9.47;44.25;99102.63;4926201;28;98970;-71
2023/01/18 11:48:41;;;;;;;11.73;4.03;;;;;;;9.43;44.94;99109.88;4924129;28;98706;-70
2023/01/18 11:51:15;;;;;;;32.50;6.03;;;;;;;9.52;44.57;99119.03;4928395;28;97720;-71
2023/01/18 11:53:53;;;;;;;9.68;4.55;;;;;;;9.49;44.21;99116.59;4934573;28;98028;-70
2023/01/18 11:56:30;;;;;;;13.57;4.20;;;;;;;9.78;43.25;99112.31;4925537;28;99549;-71
2023/01/18 11:58:57;;;;;;;11.80;4.43;;;;;;;9.68;43.72;99116.38;4922820;28;98269;-70
2023/01/18 12:01:49;;;;;;;10.23;4.40;;;;;;;9.67;43.72;99114.69;4926712;28;96731;-71
2023/01/18 12:04:32;;;;;;;10.77;4.75;;;;;;;9.57;43.33;99128.41;4926860;28;97403;-70
2023/01/18 12:07:14;;;;;;;13.60;5.10;;;;;;;9.68;43.55;99114.59;4931993;28;100796;-70
2023/01/18 12:09:51;;;;;;;11.02;5.03;;;;;;;9.53;43.97;99120.75;4928179;28;98119;-70
2023/01/18 12:12:32;;;;;;;12.40;5.00;;;;;;;9.48;43.51;99123.66;4929033;28;96864;-71
2023/01/18 12:15:18;;;;;;;8.80;4.22;;;;;;;9.55;43.18;99124.16;4927094;28;98418;-70
2023/01/18 12:18:01;;;;;;;10.90;4.45;;;;;;;9.56;43.34;99128.50;4930876;28;101498;-73